| time (UTC) | temp F | wind direction | speed MPH | gust MPH | rain 1hr in | rain 24hr in | rain mn in | humidity % | barometer mb |
| 20260507174514 | 54 | 267 | 9.0 | 16.0 | 0.00 | 0.00 | 0.00 | 43 | 1010.4 |
| 20260507174004 | 55 | 250 | 7.0 | 14.0 | 0.00 | 0.00 | 0.00 | 44 | 1010.6 |
| 20260507173504 | 55 | 250 | 6.0 | 13.0 | 0.00 | 0.00 | 0.00 | 47 | 1010.7 |
| 20260507173021 | 54 | 286 | 6.0 | 11.0 | 0.00 | 0.00 | 0.00 | 44 | 1010.6 |
| 20260507172506 | 54 | 296 | 5.0 | 10.0 | 0.00 | 0.00 | 0.00 | 47 | 1010.8 |
| 20260507172006 | 53 | 293 | 4.0 | 15.0 | 0.00 | 0.00 | 0.00 | 49 | 1010.8 |
| 20260507171504 | 53 | 265 | 7.0 | 17.0 | 0.00 | 0.00 | 0.00 | 45 | 1011.0 |
| 20260507171005 | 53 | 294 | 5.0 | 17.0 | 0.00 | 0.00 | 0.00 | 48 | 1011.1 |
| 20260507170502 | 53 | 279 | 6.0 | 16.0 | 0.00 | 0.00 | 0.00 | 47 | 1011.1 |
| 20260507170013 | 54 | 293 | 4.0 | 15.0 | 0.00 | 0.00 | 0.00 | 46 | 1011.1 |
| 20260507165503 | 53 | 278 | 8.0 | 15.0 | 0.00 | 0.00 | 0.00 | 46 | 1011.1 |
| 20260507165004 | 53 | 245 | 4.0 | 12.0 | 0.00 | 0.00 | 0.00 | 49 | 1011.2 |
| 20260507164503 | 52 | 247 | 4.0 | 13.0 | 0.00 | 0.00 | 0.00 | 49 | 1011.3 |
| 20260507164004 | 52 | 281 | 8.0 | 13.0 | 0.00 | 0.00 | 0.00 | 49 | 1011.3 |
| 20260507163504 | 52 | 286 | 3.0 | 10.0 | 0.00 | 0.00 | 0.00 | 52 | 1011.3 |
| 20260507163010 | 52 | 282 | 3.0 | 10.0 | 0.00 | 0.00 | 0.00 | 51 | 1011.4 |
| 20260507162506 | 52 | 335 | 4.0 | 11.0 | 0.00 | 0.00 | 0.00 | 51 | 1011.4 |
| 20260507162007 | 52 | 273 | 3.0 | 13.0 | 0.00 | 0.00 | 0.00 | 50 | 1011.4 |
| 20260507161513 | 52 | 288 | 6.0 | 13.0 | 0.00 | 0.00 | 0.00 | 49 | 1011.4 |
| 20260507161004 | 52 | 285 | 6.0 | 11.0 | 0.00 | 0.00 | 0.00 | 49 | 1011.6 |
| 20260507160505 | 51 | 286 | 5.0 | 12.0 | 0.00 | 0.00 | 0.00 | 49 | 1011.6 |
| 20260507160003 | 52 | 263 | 6.0 | 17.0 | 0.00 | 0.00 | 0.00 | 47 | 1011.7 |
| 20260507155503 | 52 | 222 | 9.0 | 17.0 | 0.00 | 0.00 | 0.00 | 46 | 1011.7 |
| 20260507155002 | 52 | 288 | 4.0 | 10.0 | 0.00 | 0.00 | 0.00 | 48 | 1011.8 |
| 20260507154507 | 52 | 283 | 6.0 | 10.0 | 0.00 | 0.00 | 0.00 | 46 | 1011.8 |
| 20260507154004 | 52 | 303 | 4.0 | 8.0 | 0.00 | 0.00 | 0.00 | 48 | 1011.9 |
| 20260507153504 | 52 | 314 | 3.0 | 10.0 | 0.00 | 0.00 | 0.00 | 50 | 1011.8 |
| 20260507153008 | 51 | 267 | 2.0 | 14.0 | 0.00 | 0.00 | 0.00 | 53 | 1011.9 |
| 20260507152504 | 50 | 328 | 5.0 | 14.0 | 0.00 | 0.00 | 0.00 | 50 | 1012.1 |
| 20260507152004 | 50 | 269 | 5.0 | 11.0 | 0.00 | 0.00 | 0.00 | 51 | 1012.1 |
| 20260507151517 | 50 | 320 | 5.0 | 12.0 | 0.00 | 0.00 | 0.00 | 52 | 1012.2 |
| 20260507151008 | 50 | 281 | 5.0 | 12.0 | 0.00 | 0.00 | 0.00 | 53 | 1012.1 |
| 20260507150507 | 50 | 297 | 5.0 | 16.0 | 0.00 | 0.00 | 0.00 | 54 | 1012.4 |
| 20260507150015 | 50 | 251 | 9.0 | 16.0 | 0.00 | 0.00 | 0.00 | 53 | 1012.4 |
| 20260507145506 | 50 | 200 | 5.0 | 11.0 | 0.00 | 0.00 | 0.00 | 55 | 1012.4 |
| 20260507145006 | 50 | 266 | 5.0 | 16.0 | 0.00 | 0.00 | 0.00 | 55 | 1012.3 |
| 20260507144518 | 49 | 261 | 5.0 | 16.0 | 0.00 | 0.00 | 0.00 | 55 | 1012.5 |
| 20260507144003 | 49 | 259 | 6.0 | 13.0 | 0.00 | 0.00 | 0.00 | 56 | 1012.6 |
| 20260507143503 | 49 | 261 | 7.0 | 13.0 | 0.00 | 0.01 | 0.00 | 52 | 1012.6 |
| 20260507143005 | 49 | 323 | 3.0 | 9.0 | 0.00 | 0.01 | 0.00 | 55 | 1012.6 |
| 20260507142504 | 49 | 266 | 2.0 | 7.0 | 0.00 | 0.01 | 0.00 | 57 | 1012.8 |
| 20260507142004 | 48 | 246 | 3.0 | 7.0 | 0.00 | 0.01 | 0.00 | 58 | 1012.7 |
| 20260507141507 | 48 | 292 | 2.0 | 10.0 | 0.00 | 0.01 | 0.00 | 59 | 1012.9 |
| 20260507141004 | 47 | 283 | 5.0 | 10.0 | 0.00 | 0.01 | 0.00 | 56 | 1012.9 |
| 20260507140506 | 47 | 229 | 4.0 | 10.0 | 0.00 | 0.01 | 0.00 | 58 | 1012.9 |
| 20260507140011 | 47 | 272 | 4.0 | 10.0 | 0.00 | 0.02 | 0.00 | 58 | 1013.0 |
| 20260507135506 | 47 | 204 | 4.0 | 9.0 | 0.00 | 0.02 | 0.00 | 56 | 1013.0 |
| 20260507135006 | 47 | 262 | 2.0 | 8.0 | 0.00 | 0.02 | 0.00 | 59 | 1013.1 |
| 20260507134514 | 46 | 272 | 3.0 | 12.0 | 0.00 | 0.02 | 0.00 | 58 | 1013.1 |
| 20260507134007 | 46 | 271 | 5.0 | 12.0 | 0.00 | 0.02 | 0.00 | 56 | 1012.9 |
| 20260507133509 | 46 | 255 | 4.0 | 9.0 | 0.00 | 0.02 | 0.00 | 57 | 1013.2 |
| 20260507133020 | 47 | 248 | 3.0 | 7.0 | 0.00 | 0.02 | 0.00 | 57 | 1013.1 |
| 20260507132503 | 47 | 188 | 1.0 | 7.0 | 0.00 | 0.02 | 0.00 | 59 | 1013.2 |
| 20260507132004 | 47 | 252 | 1.0 | 5.0 | 0.00 | 0.02 | 0.00 | 60 | 1013.1 |
| 20260507131507 | 47 | 241 | 1.0 | 3.0 | 0.00 | 0.02 | 0.00 | 63 | 1013.0 |
| 20260507131004 | 46 | 166 | 1.0 | 4.0 | 0.00 | 0.02 | 0.00 | 63 | 1013.0 |
| 20260507130505 | 46 | 167 | 1.0 | 4.0 | 0.00 | 0.02 | 0.00 | 63 | 1013.0 |
| 20260507130008 | 46 | 151 | 3.0 | 4.0 | 0.00 | 0.02 | 0.00 | 60 | 1013.1 |
| 20260507125504 | 46 | 169 | 2.0 | 4.0 | 0.00 | 0.02 | 0.00 | 64 | 1013.2 |
| 20260507125005 | 45 | 248 | 1.0 | 3.0 | 0.00 | 0.02 | 0.00 | 61 | 1013.2 |
| 20260507124516 | 45 | 202 | 0.0 | 3.0 | 0.00 | 0.02 | 0.00 | 60 | 1013.3 |
| 20260507124007 | 45 | 218 | 1.0 | 2.0 | 0.00 | 0.03 | 0.00 | 61 | 1013.2 |
| 20260507123509 | 45 | 198 | 1.0 | 2.0 | 0.00 | 0.03 | 0.00 | 65 | 1013.3 |
| 20260507123022 | 46 | 141 | 0.0 | 1.0 | 0.00 | 0.03 | 0.00 | 70 | 1013.2 |
| 20260507122507 | 45 | 191 | 0.0 | 1.0 | 0.00 | 0.03 | 0.00 | 70 | 1013.1 |
| 20260507122013 | 45 | 150 | 0.0 | 1.0 | 0.00 | 0.03 | 0.00 | 71 | 1013.1 |
| 20260507121523 | 44 | 191 | 0.0 | 2.0 | 0.00 | 0.03 | 0.00 | 72 | 1013.2 |
| 20260507121003 | 43 | 191 | 0.0 | 2.0 | 0.00 | 0.03 | 0.00 | 72 | 1013.2 |
| 20260507120502 | 42 | 250 | 1.0 | 3.0 | 0.00 | 0.03 | 0.00 | 68 | 1013.1 |
| 20260507120008 | 42 | 245 | 2.0 | 3.0 | 0.00 | 0.03 | 0.00 | 66 | 1013.2 |
| 20260507115503 | 43 | 230 | 1.0 | 2.0 | 0.00 | 0.03 | 0.00 | 66 | 1013.2 |
| 20260507115005 | 43 | 238 | 0.0 | 1.0 | 0.00 | 0.03 | 0.00 | 67 | 1013.2 |
| 20260507114511 | 43 | 260 | 0.0 | 1.0 | 0.00 | 0.04 | 0.00 | 68 | 1013.0 |
| 20260507114007 | 42 | 252 | 0.0 | 2.0 | 0.00 | 0.04 | 0.00 | 69 | 1013.1 |
| 20260507113505 | 42 | 255 | 1.0 | 2.0 | 0.00 | 0.04 | 0.00 | 65 | 1013.0 |
| 20260507113019 | 42 | 236 | 1.0 | 3.0 | 0.00 | 0.05 | 0.00 | 66 | 1013.0 |
| 20260507112508 | 42 | 252 | 1.0 | 3.0 | 0.00 | 0.06 | 0.00 | 66 | 1013.0 |
| 20260507112008 | 41 | 256 | 1.0 | 3.0 | 0.00 | 0.07 | 0.00 | 66 | 1012.9 |
| 20260507111522 | 41 | 233 | 2.0 | 3.0 | 0.00 | 0.09 | 0.00 | 66 | 1012.8 |
| 20260507111007 | 41 | 230 | 2.0 | 3.0 | 0.00 | 0.10 | 0.00 | 66 | 1012.7 |
| 20260507110509 | 41 | 270 | 1.0 | 3.0 | 0.00 | 0.11 | 0.00 | 66 | 1012.7 |
| 20260507110025 | 40 | 251 | 2.0 | 3.0 | 0.00 | 0.12 | 0.00 | 66 | 1012.6 |
| 20260507105510 | 41 | 224 | 2.0 | 3.0 | 0.00 | 0.14 | 0.00 | 66 | 1012.5 |
| 20260507105003 | 40 | 241 | 3.0 | 3.0 | 0.00 | 0.16 | 0.00 | 66 | 1012.4 |
| 20260507104506 | 40 | 251 | 2.0 | 2.0 | 0.00 | 0.17 | 0.00 | 65 | 1012.5 |
| 20260507104006 | 40 | 248 | 2.0 | 3.0 | 0.00 | 0.19 | 0.00 | 67 | 1012.5 |
| 20260507103505 | 40 | 245 | 2.0 | 3.0 | 0.00 | 0.20 | 0.00 | 68 | 1012.5 |
| 20260507103011 | 40 | 233 | 2.0 | 3.0 | 0.00 | 0.22 | 0.00 | 68 | 1012.6 |
| 20260507102506 | 39 | 221 | 2.0 | 3.0 | 0.00 | 0.24 | 0.00 | 68 | 1012.5 |
| 20260507102007 | 40 | 238 | 2.0 | 3.0 | 0.00 | 0.25 | 0.00 | 69 | 1012.5 |
| 20260507101518 | 40 | 233 | 2.0 | 3.0 | 0.00 | 0.26 | 0.00 | 69 | 1012.5 |
| 20260507101005 | 39 | 243 | 2.0 | 3.0 | 0.00 | 0.27 | 0.00 | 70 | 1012.6 |
| 20260507100507 | 39 | 251 | 1.0 | 2.0 | 0.00 | 0.29 | 0.00 | 70 | 1012.6 |
| 20260507100021 | 40 | 250 | 1.0 | 3.0 | 0.00 | 0.30 | 0.00 | 69 | 1012.5 |
| 20260507095512 | 40 | 251 | 1.0 | 3.0 | 0.00 | 0.31 | 0.00 | 69 | 1012.6 |
| 20260507095007 | 40 | 254 | 2.0 | 3.0 | 0.00 | 0.32 | 0.00 | 70 | 1012.6 |
| 20260507094523 | 40 | 247 | 2.0 | 2.0 | 0.00 | 0.33 | 0.00 | 70 | 1012.5 |
| 20260507094007 | 40 | 247 | 1.0 | 1.0 | 0.00 | 0.33 | 0.00 | 70 | 1012.5 |
| 20260507093506 | 40 | 247 | 0.0 | 0.0 | 0.00 | 0.35 | 0.00 | 70 | 1012.5 |
| 20260507093014 | 40 | 245 | 0.0 | 0.0 | 0.00 | 0.36 | 0.00 | 69 | 1012.4 |
| 20260507092504 | 40 | 240 | 0.0 | 0.0 | 0.00 | 0.37 | 0.00 | 69 | 1012.5 |
| 20260507092006 | 40 | 256 | 0.0 | 0.0 | 0.00 | 0.39 | 0.00 | 70 | 1012.6 |
| 20260507091512 | 39 | 257 | 0.0 | 0.0 | 0.00 | 0.39 | 0.00 | 71 | 1012.5 |
| 20260507091006 | 39 | 285 | 0.0 | 0.0 | 0.00 | 0.40 | 0.00 | 70 | 1012.6 |
| 20260507090507 | 40 | 285 | 0.0 | 0.0 | 0.00 | 0.41 | 0.00 | 69 | 1012.5 |
| 20260507090018 | 40 | 285 | 0.0 | 0.0 | 0.00 | 0.41 | 0.00 | 69 | 1012.5 |
| 20260507085508 | 40 | 287 | 0.0 | 0.0 | 0.00 | 0.41 | 0.00 | 68 | 1012.4 |
| 20260507085012 | 40 | 287 | 0.0 | 1.0 | 0.00 | 0.41 | 0.00 | 68 | 1012.4 |
| 20260507084514 | 40 | 287 | 0.0 | 1.0 | 0.00 | 0.41 | 0.00 | 68 | 1012.4 |
| 20260507084003 | 40 | 306 | 0.0 | 2.0 | 0.00 | 0.41 | 0.00 | 68 | 1012.3 |
| 20260507083503 | 40 | 306 | 0.0 | 2.0 | 0.00 | 0.41 | 0.00 | 68 | 1012.3 |
| 20260507083005 | 40 | 307 | 1.0 | 2.0 | 0.00 | 0.41 | 0.00 | 68 | 1012.4 |
| 20260507082504 | 40 | 309 | 1.0 | 2.0 | 0.00 | 0.41 | 0.00 | 69 | 1012.4 |
| 20260507082003 | 40 | 309 | 0.0 | 2.0 | 0.00 | 0.41 | 0.00 | 68 | 1012.5 |
| 20260507081510 | 40 | 309 | 0.0 | 2.0 | 0.00 | 0.41 | 0.00 | 68 | 1012.5 |
| 20260507081003 | 40 | 300 | 1.0 | 1.0 | 0.00 | 0.42 | 0.00 | 67 | 1012.5 |
| 20260507080504 | 40 | 301 | 0.0 | 2.0 | 0.00 | 0.42 | 0.00 | 67 | 1012.5 |
| 20260507080013 | 40 | 301 | 0.0 | 2.0 | 0.00 | 0.42 | 0.00 | 67 | 1012.5 |
| 20260507075506 | 40 | 299 | 1.0 | 2.0 | 0.00 | 0.42 | 0.00 | 67 | 1012.6 |
| 20260507075007 | 40 | 288 | 1.0 | 2.0 | 0.00 | 0.42 | 0.00 | 68 | 1012.6 |
| 20260507074518 | 41 | 289 | 0.0 | 2.0 | 0.00 | 0.42 | 0.00 | 67 | 1012.7 |
| 20260507074008 | 41 | 280 | 1.0 | 2.0 | 0.00 | 0.42 | 0.00 | 67 | 1012.7 |
| 20260507073510 | 41 | 283 | 1.0 | 2.0 | 0.00 | 0.43 | 0.00 | 67 | 1012.7 |
| 20260507073022 | 41 | 276 | 1.0 | 1.0 | 0.00 | 0.43 | 0.00 | 67 | 1012.7 |
| 20260507072503 | 41 | 293 | 0.0 | 2.0 | 0.00 | 0.43 | 0.00 | 67 | 1012.7 |
| 20260507072003 | 41 | 285 | 1.0 | 3.0 | 0.00 | 0.44 | 0.00 | 66 | 1012.7 |
| 20260507071506 | 41 | 290 | 0.0 | 3.0 | 0.00 | 0.44 | 0.00 | 66 | 1012.7 |
| 20260507071004 | 41 | 278 | 1.0 | 3.0 | 0.00 | 0.45 | 0.00 | 66 | 1012.7 |
| 20260507070504 | 41 | 289 | 1.0 | 3.0 | 0.00 | 0.45 | 0.00 | 66 | 1012.8 |
| 20260507070012 | 41 | 301 | 1.0 | 2.0 | 0.00 | 0.46 | 0.00 | 66 | 1012.7 |
| 20260507065506 | 41 | 283 | 1.0 | 2.0 | 0.00 | 0.47 | 0.00 | 65 | 1012.8 |
| 20260507065004 | 42 | 291 | 0.0 | 2.0 | 0.00 | 0.47 | 0.00 | 64 | 1012.8 |
| 20260507064516 | 42 | 282 | 0.0 | 2.0 | 0.00 | 0.48 | 0.00 | 64 | 1012.7 |
| 20260507064007 | 42 | 285 | 1.0 | 2.0 | 0.00 | 0.48 | 0.00 | 63 | 1012.7 |
| 20260507063508 | 42 | 292 | 0.0 | 2.0 | 0.00 | 0.49 | 0.00 | 63 | 1012.6 |
| 20260507063019 | 42 | 293 | 0.0 | 1.0 | 0.00 | 0.49 | 0.00 | 63 | 1012.7 |
| 20260507062506 | 42 | 293 | 0.0 | 2.0 | 0.00 | 0.50 | 0.00 | 62 | 1012.6 |
| 20260507062011 | 42 | 287 | 1.0 | 3.0 | 0.00 | 0.50 | 0.00 | 62 | 1012.6 |
| 20260507061522 | 42 | 291 | 1.0 | 3.0 | 0.00 | 0.50 | 0.00 | 61 | 1012.7 |
| 20260507061004 | 42 | 305 | 2.0 | 3.0 | 0.00 | 0.51 | 0.00 | 62 | 1012.8 |
| 20260507060503 | 42 | 308 | 1.0 | 5.0 | 0.00 | 0.51 | 0.00 | 62 | 1012.9 |
| 20260507060012 | 43 | 314 | 2.0 | 5.0 | 0.00 | 0.52 | 0.00 | 61 | 1012.9 |
| 20260507055504 | 43 | 277 | 3.0 | 5.0 | 0.00 | 0.52 | 0.00 | 61 | 1013.0 |
| 20260507055011 | 43 | 289 | 1.0 | 6.0 | 0.00 | 0.52 | 0.00 | 62 | 1013.0 |
| 20260507054512 | 43 | 271 | 2.0 | 6.0 | 0.00 | 0.52 | 0.00 | 62 | 1013.1 |
| 20260507054010 | 43 | 311 | 3.0 | 5.0 | 0.00 | 0.52 | 0.00 | 62 | 1013.2 |
| 20260507053506 | 43 | 293 | 3.0 | 4.0 | 0.00 | 0.52 | 0.00 | 61 | 1013.2 |
| 20260507053018 | 43 | 288 | 2.0 | 4.0 | 0.00 | 0.52 | 0.00 | 61 | 1013.2 |
| 20260507052507 | 43 | 290 | 1.0 | 8.0 | 0.00 | 0.52 | 0.00 | 61 | 1013.2 |
| 20260507052007 | 43 | 279 | 3.0 | 8.0 | 0.00 | 0.52 | 0.00 | 61 | 1013.2 |
| 20260507051520 | 43 | 282 | 2.0 | 5.0 | 0.00 | 0.52 | 0.00 | 61 | 1013.3 |
| 20260507051007 | 43 | 278 | 2.0 | 6.0 | 0.00 | 0.52 | 0.00 | 61 | 1013.2 |
| 20260507050506 | 43 | 297 | 3.0 | 6.0 | 0.00 | 0.52 | 0.00 | 60 | 1013.2 |
| 20260507050039 | 43 | 290 | 1.0 | 5.0 | 0.00 | 0.52 | 0.00 | 60 | 1013.1 |
| 20260507045507 | 43 | 290 | 2.0 | 5.0 | 0.00 | 0.52 | 0.00 | 60 | 1013.1 |
| 20260507045004 | 43 | 305 | 2.0 | 5.0 | 0.00 | 0.52 | 0.00 | 60 | 1013.2 |
| 20260507044509 | 43 | 281 | 2.0 | 4.0 | 0.00 | 0.52 | 0.00 | 60 | 1013.2 |
| 20260507044005 | 43 | 302 | 1.0 | 4.0 | 0.00 | 0.52 | 0.00 | 60 | 1013.2 |
| 20260507043506 | 44 | 307 | 2.0 | 6.0 | 0.00 | 0.52 | 0.00 | 60 | 1013.2 |
| 20260507043011 | 44 | 287 | 2.0 | 6.0 | 0.00 | 0.52 | 0.00 | 59 | 1013.3 |
| 20260507042507 | 44 | 290 | 2.0 | 5.0 | 0.00 | 0.52 | 0.00 | 60 | 1013.2 |
| 20260507042006 | 44 | 290 | 2.0 | 5.0 | 0.00 | 0.52 | 0.00 | 60 | 1013.2 |
| 20260507041516 | 44 | 304 | 2.0 | 5.0 | 0.00 | 0.52 | 0.00 | 59 | 1013.1 |
| 20260507041007 | 44 | 313 | 2.0 | 5.0 | 0.00 | 0.52 | 0.00 | 59 | 1013.2 |
| 20260507040510 | 44 | 269 | 2.0 | 5.0 | 0.00 | 0.52 | 0.00 | 59 | 1013.3 |
| 20260507040022 | 44 | 284 | 2.0 | 5.0 | 0.00 | 0.52 | 0.00 | 59 | 1013.3 |
| 20260507035508 | 44 | 297 | 1.0 | 3.0 | 0.00 | 0.52 | 0.52 | 59 | 1013.2 |
| 20260507035008 | 45 | 288 | 1.0 | 4.0 | 0.00 | 0.52 | 0.52 | 59 | 1013.0 |
| 20260507034527 | 45 | 309 | 2.0 | 5.0 | 0.00 | 0.52 | 0.52 | 58 | 1013.1 |
| 20260507034008 | 45 | 288 | 2.0 | 5.0 | 0.00 | 0.52 | 0.52 | 58 | 1013.0 |
| 20260507033504 | 45 | 290 | 2.0 | 4.0 | 0.00 | 0.52 | 0.52 | 58 | 1013.0 |
| 20260507033010 | 45 | 309 | 2.0 | 6.0 | 0.00 | 0.52 | 0.52 | 58 | 1012.9 |
| 20260507032508 | 45 | 288 | 2.0 | 6.0 | 0.00 | 0.52 | 0.52 | 58 | 1013.0 |
| 20260507032007 | 45 | 296 | 1.0 | 3.0 | 0.00 | 0.52 | 0.52 | 58 | 1013.1 |
| 20260507031516 | 45 | 274 | 1.0 | 3.0 | 0.00 | 0.52 | 0.52 | 57 | 1012.9 |
| 20260507031009 | 45 | 312 | 1.0 | 5.0 | 0.00 | 0.52 | 0.52 | 58 | 1012.7 |
| 20260507030509 | 45 | 326 | 1.0 | 5.0 | 0.00 | 0.52 | 0.52 | 57 | 1012.7 |
| 20260507030017 | 45 | 299 | 1.0 | 4.0 | 0.00 | 0.52 | 0.52 | 57 | 1012.7 |
| 20260507025509 | 45 | 304 | 1.0 | 5.0 | 0.00 | 0.52 | 0.52 | 58 | 1012.8 |
| 20260507025008 | 45 | 291 | 0.0 | 5.0 | 0.00 | 0.52 | 0.52 | 58 | 1012.8 |
| 20260507024522 | 45 | 251 | 0.0 | 3.0 | 0.00 | 0.52 | 0.52 | 58 | 1012.8 |
| 20260507024012 | 45 | 285 | 0.0 | 3.0 | 0.00 | 0.52 | 0.52 | 58 | 1012.7 |
| 20260507023510 | 45 | 274 | 2.0 | 4.0 | 0.00 | 0.52 | 0.52 | 56 | 1012.8 |
| 20260507023025 | 45 | 304 | 1.0 | 4.0 | 0.00 | 0.52 | 0.52 | 57 | 1012.7 |
| 20260507022511 | 45 | 317 | 1.0 | 4.0 | 0.00 | 0.52 | 0.52 | 58 | 1012.4 |
| 20260507022007 | 45 | 302 | 2.0 | 4.0 | 0.00 | 0.52 | 0.52 | 57 | 1012.3 |
| 20260507021510 | 46 | 314 | 1.0 | 3.0 | 0.00 | 0.52 | 0.52 | 58 | 1012.2 |
| 20260507021007 | 46 | 307 | 2.0 | 5.0 | 0.00 | 0.52 | 0.52 | 57 | 1012.4 |
| 20260507020508 | 46 | 318 | 2.0 | 7.0 | 0.00 | 0.52 | 0.52 | 57 | 1012.3 |
| 20260507020016 | 46 | 334 | 3.0 | 7.0 | 0.00 | 0.52 | 0.52 | 57 | 1012.4 |
| 20260507015506 | 46 | 316 | 2.0 | 6.0 | 0.00 | 0.52 | 0.52 | 59 | 1012.5 |
| 20260507015010 | 46 | 319 | 2.0 | 5.0 | 0.00 | 0.52 | 0.52 | 62 | 1012.5 |
| 20260507014522 | 46 | 274 | 2.0 | 4.0 | 0.00 | 0.52 | 0.52 | 61 | 1012.4 |
| 20260507014009 | 46 | 344 | 2.0 | 4.0 | 0.00 | 0.52 | 0.52 | 62 | 1012.4 |
| 20260507013507 | 46 | 313 | 2.0 | 10.0 | 0.00 | 0.52 | 0.52 | 61 | 1012.4 |
| 20260507013023 | 47 | 326 | 4.0 | 10.0 | 0.00 | 0.52 | 0.52 | 60 | 1012.6 |
| 20260507012506 | 47 | 10 | 3.0 | 12.0 | 0.00 | 0.52 | 0.52 | 60 | 1012.7 |
| 20260507012012 | 47 | 279 | 4.0 | 12.0 | 0.00 | 0.52 | 0.52 | 60 | 1012.9 |
| 20260507011525 | 47 | 310 | 2.0 | 7.0 | 0.00 | 0.52 | 0.52 | 60 | 1012.9 |
| 20260507011004 | 47 | 316 | 2.0 | 8.0 | 0.00 | 0.52 | 0.52 | 60 | 1013.0 |
| 20260507010506 | 47 | 303 | 3.0 | 8.0 | 0.00 | 0.52 | 0.52 | 60 | 1013.2 |
| 20260507010021 | 47 | 303 | 2.0 | 6.0 | 0.00 | 0.52 | 0.52 | 60 | 1012.8 |
| 20260507005504 | 47 | 316 | 3.0 | 7.0 | 0.00 | 0.52 | 0.52 | 59 | 1012.9 |
| 20260507005006 | 47 | 290 | 3.0 | 7.0 | 0.00 | 0.52 | 0.52 | 59 | 1012.9 |
| 20260507004504 | 47 | 292 | 4.0 | 7.0 | 0.00 | 0.52 | 0.52 | 58 | 1012.7 |
| 20260507004003 | 48 | 295 | 3.0 | 9.0 | 0.00 | 0.52 | 0.52 | 59 | 1012.6 |
| 20260507003503 | 48 | 296 | 3.0 | 11.0 | 0.00 | 0.52 | 0.52 | 59 | 1012.4 |
| 20260507003004 | 48 | 307 | 4.0 | 11.0 | 0.00 | 0.52 | 0.52 | 59 | 1012.5 |
| 20260507002532 | 48 | 283 | 4.0 | 12.0 | 0.00 | 0.52 | 0.52 | 60 | 1012.7 |
| 20260507002003 | 48 | 306 | 4.0 | 12.0 | 0.00 | 0.52 | 0.52 | 61 | 1012.5 |
| 20260507001507 | 48 | 295 | 4.0 | 12.0 | 0.00 | 0.52 | 0.52 | 62 | 1012.5 |
| 20260507001003 | 48 | 297 | 5.0 | 10.0 | 0.00 | 0.52 | 0.52 | 62 | 1012.5 |
| 20260507000503 | 48 | 266 | 5.0 | 10.0 | 0.00 | 0.52 | 0.52 | 63 | 1012.1 |
| 20260507000009 | 48 | 286 | 4.0 | 12.0 | 0.00 | 0.52 | 0.52 | 66 | 1012.2 |
| 20260506235505 | 48 | 323 | 5.0 | 12.0 | 0.00 | 0.52 | 0.52 | 68 | 1012.0 |
| 20260506235004 | 49 | 282 | 2.0 | 6.0 | 0.00 | 0.52 | 0.52 | 69 | 1012.1 |
| 20260506234516 | 49 | 296 | 2.0 | 8.0 | 0.00 | 0.52 | 0.52 | 69 | 1011.9 |
| 20260506234004 | 49 | 300 | 3.0 | 8.0 | 0.00 | 0.52 | 0.52 | 69 | 1011.9 |
| 20260506233509 | 49 | 303 | 2.0 | 6.0 | 0.00 | 0.52 | 0.52 | 69 | 1011.8 |
| 20260506233018 | 49 | 307 | 2.0 | 6.0 | 0.00 | 0.52 | 0.52 | 70 | 1011.8 |
| 20260506232504 | 49 | 280 | 3.0 | 6.0 | 0.00 | 0.52 | 0.52 | 70 | 1011.8 |
| 20260506232003 | 49 | 321 | 2.0 | 6.0 | 0.00 | 0.52 | 0.52 | 71 | 1011.6 |
| 20260506231503 | 49 | 292 | 2.0 | 6.0 | 0.00 | 0.52 | 0.52 | 71 | 1011.6 |
| 20260506231004 | 49 | 319 | 2.0 | 7.0 | 0.00 | 0.52 | 0.52 | 71 | 1011.5 |
| 20260506230504 | 49 | 303 | 2.0 | 7.0 | 0.00 | 0.52 | 0.52 | 71 | 1011.5 |
| 20260506230007 | 49 | 322 | 3.0 | 7.0 | 0.00 | 0.52 | 0.52 | 71 | 1011.5 |
| 20260506225504 | 49 | 321 | 3.0 | 7.0 | 0.00 | 0.52 | 0.52 | 71 | 1011.6 |
| 20260506225003 | 49 | 290 | 3.0 | 7.0 | 0.00 | 0.52 | 0.52 | 71 | 1011.6 |
| 20260506224512 | 49 | 309 | 3.0 | 8.0 | 0.00 | 0.52 | 0.52 | 72 | 1011.5 |
| 20260506224004 | 49 | 294 | 3.0 | 8.0 | 0.00 | 0.52 | 0.52 | 73 | 1011.5 |
| 20260506223507 | 49 | 292 | 3.0 | 8.0 | 0.00 | 0.52 | 0.52 | 73 | 1011.5 |
| 20260506223028 | 49 | 293 | 2.0 | 9.0 | 0.00 | 0.52 | 0.52 | 73 | 1011.3 |
| 20260506222506 | 50 | 278 | 3.0 | 9.0 | 0.00 | 0.52 | 0.52 | 72 | 1011.3 |
| 20260506222009 | 50 | 310 | 4.0 | 9.0 | 0.00 | 0.52 | 0.52 | 72 | 1011.2 |
| 20260506221520 | 50 | 278 | 4.0 | 7.0 | 0.00 | 0.52 | 0.52 | 72 | 1011.1 |
| 20260506221002 | 50 | 287 | 3.0 | 7.0 | 0.00 | 0.52 | 0.52 | 72 | 1011.1 |
| 20260506220504 | 50 | 302 | 2.0 | 6.0 | 0.00 | 0.52 | 0.52 | 73 | 1011.0 |
| 20260506220004 | 50 | 317 | 3.0 | 6.0 | 0.00 | 0.52 | 0.52 | 74 | 1011.1 |
| 20260506215503 | 50 | 283 | 2.0 | 7.0 | 0.00 | 0.52 | 0.52 | 74 | 1011.2 |
| 20260506215002 | 50 | 283 | 3.0 | 7.0 | 0.00 | 0.52 | 0.52 | 75 | 1011.2 |
| 20260506214510 | 49 | 291 | 3.0 | 7.0 | 0.00 | 0.52 | 0.52 | 75 | 1011.1 |
| 20260506214004 | 50 | 294 | 4.0 | 7.0 | 0.00 | 0.52 | 0.52 | 74 | 1011.0 |
| 20260506213503 | 50 | 309 | 3.0 | 6.0 | 0.00 | 0.52 | 0.52 | 75 | 1010.8 |
| 20260506213013 | 49 | 288 | 3.0 | 6.0 | 0.00 | 0.52 | 0.52 | 75 | 1010.8 |
| 20260506212507 | 49 | 348 | 2.0 | 7.0 | 0.00 | 0.52 | 0.52 | 77 | 1010.6 |
| 20260506212007 | 49 | 330 | 3.0 | 7.0 | 0.00 | 0.52 | 0.52 | 76 | 1010.6 |
| 20260506211532 | 49 | 297 | 1.0 | 7.0 | 0.00 | 0.52 | 0.52 | 77 | 1010.5 |
| 20260506211006 | 49 | 342 | 2.0 | 7.0 | 0.00 | 0.52 | 0.52 | 76 | 1010.6 |
| 20260506210507 | 49 | 291 | 0.0 | 7.0 | 0.00 | 0.52 | 0.52 | 76 | 1010.7 |
| 20260506210031 | 49 | 264 | 3.0 | 7.0 | 0.00 | 0.52 | 0.52 | 76 | 1010.6 |
| 20260506205507 | 49 | 304 | 1.0 | 9.0 | 0.00 | 0.52 | 0.52 | 77 | 1010.5 |
| 20260506205004 | 49 | 298 | 4.0 | 9.0 | 0.00 | 0.52 | 0.52 | 76 | 1010.3 |
| 20260506204507 | 49 | 327 | 3.0 | 9.0 | 0.00 | 0.52 | 0.52 | 77 | 1010.1 |
| 20260506204004 | 49 | 267 | 4.0 | 9.0 | 0.00 | 0.52 | 0.52 | 78 | 1010.1 |
| 20260506203503 | 49 | 289 | 3.0 | 10.0 | 0.00 | 0.52 | 0.52 | 79 | 1010.1 |
| 20260506203007 | 49 | 302 | 3.0 | 10.0 | 0.00 | 0.52 | 0.52 | 78 | 1010.0 |
| 20260506202503 | 49 | 304 | 4.0 | 9.0 | 0.00 | 0.52 | 0.52 | 78 | 1010.1 |
| 20260506202007 | 49 | 307 | 5.0 | 11.0 | 0.00 | 0.52 | 0.52 | 78 | 1010.1 |
| 20260506201515 | 49 | 266 | 3.0 | 12.0 | 0.00 | 0.52 | 0.52 | 78 | 1010.2 |
| 20260506201008 | 49 | 308 | 5.0 | 12.0 | 0.00 | 0.52 | 0.52 | 78 | 1010.3 |
| 20260506200507 | 49 | 310 | 6.0 | 13.0 | 0.00 | 0.52 | 0.52 | 78 | 1010.2 |
| 20260506200018 | 50 | 321 | 5.0 | 13.0 | 0.00 | 0.52 | 0.52 | 78 | 1010.2 |
| 20260506195511 | 50 | 285 | 7.0 | 13.0 | 0.00 | 0.52 | 0.52 | 78 | 1010.2 |
| 20260506195013 | 50 | 278 | 5.0 | 11.0 | 0.00 | 0.52 | 0.52 | 79 | 1010.1 |
| 20260506194522 | 50 | 302 | 2.0 | 11.0 | 0.00 | 0.52 | 0.52 | 79 | 1010.1 |
| 20260506194011 | 50 | 291 | 4.0 | 11.0 | 0.00 | 0.52 | 0.52 | 79 | 1009.9 |
| 20260506193504 | 50 | 299 | 3.0 | 15.0 | 0.00 | 0.52 | 0.52 | 79 | 1010.0 |
| 20260506193009 | 50 | 300 | 3.0 | 15.0 | 0.00 | 0.52 | 0.52 | 79 | 1009.9 |
| 20260506192507 | 51 | 288 | 6.0 | 11.0 | 0.00 | 0.52 | 0.52 | 79 | 1009.7 |
| 20260506192005 | 51 | 289 | 3.0 | 11.0 | 0.00 | 0.52 | 0.52 | 80 | 1009.7 |
| 20260506191511 | 51 | 263 | 4.0 | 9.0 | 0.00 | 0.52 | 0.52 | 81 | 1009.7 |
| 20260506191006 | 51 | 294 | 1.0 | 10.0 | 0.00 | 0.52 | 0.52 | 82 | 1009.8 |
| 20260506190506 | 51 | 236 | 3.0 | 13.0 | 0.00 | 0.52 | 0.52 | 82 | 1009.7 |
| 20260506190016 | 51 | 294 | 4.0 | 13.0 | 0.00 | 0.52 | 0.52 | 82 | 1009.6 |
| 20260506185507 | 51 | 278 | 3.0 | 7.0 | 0.00 | 0.52 | 0.52 | 83 | 1009.4 |
| 20260506185007 | 51 | 342 | 1.0 | 11.0 | 0.00 | 0.52 | 0.52 | 84 | 1009.4 |
| 20260506184520 | 50 | 300 | 2.0 | 11.0 | 0.00 | 0.52 | 0.52 | 83 | 1009.5 |
| 20260506184008 | 51 | 278 | 3.0 | 10.0 | 0.00 | 0.52 | 0.52 | 84 | 1009.6 |
| 20260506183507 | 51 | 319 | 4.0 | 10.0 | 0.00 | 0.52 | 0.52 | 83 | 1009.4 |
| 20260506183024 | 51 | 300 | 4.0 | 10.0 | 0.00 | 0.52 | 0.52 | 83 | 1009.5 |
| 20260506182509 | 51 | 284 | 3.0 | 8.0 | 0.00 | 0.52 | 0.52 | 84 | 1009.4 |
| 20260506182004 | 51 | 338 | 3.0 | 10.0 | 0.00 | 0.52 | 0.52 | 84 | 1009.4 |
| 20260506181517 | 50 | 274 | 3.0 | 10.0 | 0.00 | 0.52 | 0.52 | 86 | 1009.3 |
| 20260506181003 | 50 | 261 | 3.0 | 10.0 | 0.00 | 0.52 | 0.52 | 86 | 1009.3 |
| 20260506180505 | 50 | 302 | 2.0 | 7.0 | 0.00 | 0.52 | 0.52 | 87 | 1009.3 |
| 20260506180004 | 50 | 309 | 1.0 | 8.0 | 0.00 | 0.52 | 0.52 | 87 | 1009.3 |
| 20260506175502 | 50 | 296 | 4.0 | 11.0 | 0.00 | 0.52 | 0.52 | 87 | 1009.3 |
| 20260506175002 | 50 | 294 | 4.0 | 11.0 | 0.00 | 0.52 | 0.52 | 87 | 1009.3 |